Time;durP1;ratioP1;P1;durP2;ratioP2;P2;SDS_P1;SDS_P2;PMS_P1;PMS_P2;Temp;Humidity;BMP_temperature;BMP_pressure;BME280_temperature;BME280_humidity;BME280_pressure;Samples;Min_cycle;Max_cycle;Signal;HPM_P1;HPM_P2
2023/05/27 00:01:17;;;;;;;11.30;4.70;;;;;;;11.83;75.80;102007.09;5040689;28;20312;-79
2023/05/27 00:03:44;;;;;;;7.63;4.30;;;;;;;11.83;75.74;102022.81;5040442;28;20217;-81
2023/05/27 00:06:10;;;;;;;10.07;4.47;;;;;;;11.81;75.58;102016.66;5040156;28;20214;-80
2023/05/27 00:08:37;;;;;;;7.83;4.47;;;;;;;11.80;75.73;102012.31;5039754;28;20297;-80
2023/05/27 00:11:04;;;;;;;6.53;4.20;;;;;;;11.77;75.70;102017.53;5040053;28;20233;-82
2023/05/27 00:13:33;;;;;;;11.13;4.70;;;;;;;11.64;77.08;102000.94;5040212;28;20255;-83
2023/05/27 00:16:00;;;;;;;9.50;4.77;;;;;;;11.46;77.80;101991.31;5039325;28;20249;-80
2023/05/27 00:18:29;;;;;;;9.20;5.20;;;;;;;11.39;77.96;101984.31;5030887;28;20747;-82
2023/05/27 00:20:55;;;;;;;12.40;5.10;;;;;;;11.24;78.50;101958.16;5040198;28;20266;-80
2023/05/27 00:23:22;;;;;;;7.73;5.10;;;;;;;11.28;78.57;101944.25;5039445;28;20245;-81
2023/05/27 00:25:48;;;;;;;11.87;5.20;;;;;;;11.31;78.43;101939.84;5040026;28;20704;-82
2023/05/27 00:28:15;;;;;;;11.93;5.57;;;;;;;11.33;78.34;101937.25;5040457;28;20233;-83
2023/05/27 00:30:43;;;;;;;9.13;5.00;;;;;;;11.24;78.59;101945.09;5040924;28;20279;-81
2023/05/27 00:33:10;;;;;;;8.40;4.50;;;;;;;11.29;79.01;101938.13;5041313;28;20270;-83
2023/05/27 00:35:41;;;;;;;16.27;5.07;;;;;;;11.27;79.56;101927.66;5039806;28;20265;-82
2023/05/27 00:38:07;;;;;;;9.73;4.90;;;;;;;11.30;79.50;101938.13;5041583;28;20322;-83
2023/05/27 00:40:35;;;;;;;12.73;5.50;;;;;;;11.32;78.86;101944.22;5040920;28;20264;-83
2023/05/27 00:43:02;;;;;;;8.73;5.40;;;;;;;11.37;78.76;101951.22;5040684;28;20206;-84
2023/05/27 00:45:28;;;;;;;8.13;4.70;;;;;;;11.31;78.98;101962.53;5041229;28;20206;-84
2023/05/27 00:47:58;;;;;;;8.70;4.57;;;;;;;11.29;79.11;101959.91;5040273;28;20202;-81
2023/05/27 00:50:26;;;;;;;12.23;5.03;;;;;;;11.23;78.75;101967.72;5040651;28;20237;-82
2023/05/27 00:52:56;;;;;;;13.67;5.50;;;;;;;11.19;79.03;101960.75;5041059;28;20213;-82
2023/05/27 00:55:23;;;;;;;10.37;5.10;;;;;;;11.13;79.42;101951.13;5041423;28;20206;-82
2023/05/27 00:57:50;;;;;;;8.87;5.00;;;;;;;11.04;79.69;101943.28;5040998;28;20228;-80
2023/05/27 01:00:17;;;;;;;9.33;4.80;;;;;;;11.01;79.94;101940.66;5040532;28;20234;-80
2023/05/27 01:02:46;;;;;;;9.67;5.43;;;;;;;11.03;79.93;101945.91;5040815;28;20226;-83
2023/05/27 01:05:17;;;;;;;13.17;5.50;;;;;;;10.93;80.23;101947.59;5041710;28;20684;-82
2023/05/27 01:08:01;;;;;;;9.43;4.73;;;;;;;10.95;80.01;101938.03;5041467;28;20216;-83
2023/05/27 01:10:36;;;;;;;9.70;5.20;;;;;;;10.96;80.01;101944.13;5040930;28;20708;-83
2023/05/27 01:13:10;;;;;;;8.53;5.40;;;;;;;10.92;80.23;101944.13;5041289;28;20209;-84
2023/05/27 01:15:39;;;;;;;9.40;5.20;;;;;;;10.88;80.45;101941.47;5041902;28;20232;-82
2023/05/27 01:18:08;;;;;;;15.40;5.63;;;;;;;10.89;79.97;101949.31;5035496;28;20257;-82
2023/05/27 01:20:40;;;;;;;10.80;5.33;;;;;;;10.79;80.56;101944.06;5022675;28;20253;-83
2023/05/27 01:23:09;;;;;;;10.73;4.90;;;;;;;10.75;80.79;101931.84;5022203;28;20227;-83
2023/05/27 01:25:36;;;;;;;8.07;4.77;;;;;;;10.74;80.91;101930.97;5021586;28;20199;-82
2023/05/27 01:28:02;;;;;;;10.43;4.70;;;;;;;10.73;80.41;101926.63;5022239;28;20213;-81
2023/05/27 01:30:29;;;;;;;8.60;4.27;;;;;;;10.64;81.40;101935.25;5024649;28;20226;-80
2023/05/27 01:33:03;;;;;;;8.37;4.70;;;;;;;10.61;81.58;101922.22;5026639;28;20212;-82
2023/05/27 01:35:35;;;;;;;9.30;4.87;;;;;;;10.59;81.75;101913.50;5026334;28;20207;-83
2023/05/27 01:38:13;;;;;;;11.87;5.37;;;;;;;10.57;81.77;101911.75;5025949;28;20707;-82
2023/05/27 01:40:42;;;;;;;9.80;5.60;;;;;;;10.55;82.04;101906.53;5026298;28;20615;-84
2023/05/27 01:43:12;;;;;;;7.97;5.00;;;;;;;10.49;81.76;101903.88;5026433;28;20705;-80
2023/05/27 01:45:39;;;;;;;11.17;6.67;;;;;;;10.48;81.58;101899.50;5029444;28;20219;-83
2023/05/27 01:48:09;;;;;;;8.47;4.43;;;;;;;10.39;82.59;101900.34;5045654;28;20582;-80
2023/05/27 01:50:35;;;;;;;7.90;5.17;;;;;;;10.39;82.30;101902.97;5045371;28;20284;-80
2023/05/27 01:53:03;;;;;;;5.83;4.33;;;;;;;10.37;82.79;101885.56;5046859;28;20225;-83
2023/05/27 01:55:30;;;;;;;14.13;5.50;;;;;;;10.34;82.99;101894.22;5045610;28;20266;-82
2023/05/27 01:57:58;;;;;;;9.90;5.00;;;;;;;10.26;83.38;101881.09;5046421;28;20213;-83
2023/05/27 02:00:28;;;;;;;7.47;4.80;;;;;;;10.26;83.24;101881.09;5045674;28;20616;-83
2023/05/27 02:02:55;;;;;;;9.03;4.90;;;;;;;10.24;83.32;101875.00;5045940;28;20230;-83
2023/05/27 02:05:21;;;;;;;10.50;5.77;;;;;;;10.23;83.37;101873.25;5046139;28;20740;-82
2023/05/27 02:07:48;;;;;;;13.83;5.60;;;;;;;10.22;83.70;101868.03;5045421;28;20259;-82
2023/05/27 02:10:15;;;;;;;8.27;5.73;;;;;;;10.21;83.78;101866.25;5045856;28;20223;-83
2023/05/27 02:12:41;;;;;;;7.93;5.07;;;;;;;10.17;84.08;101860.19;5043732;28;20199;-84
2023/05/27 02:15:13;;;;;;;12.27;5.23;;;;;;;10.17;84.50;101861.91;5028655;28;20205;-83
2023/05/27 02:17:44;;;;;;;12.90;5.60;;;;;;;10.09;84.67;101851.44;5042753;28;20316;-82
2023/05/27 02:20:12;;;;;;;12.00;5.10;;;;;;;10.06;84.64;101836.63;5046302;28;20295;-81
2023/05/27 02:22:41;;;;;;;10.10;5.47;;;;;;;10.02;84.61;101839.22;5045645;28;20229;-83
2023/05/27 02:25:11;;;;;;;12.97;5.40;;;;;;;9.98;85.30;101827.00;5045626;28;20229;-83
2023/05/27 02:27:37;;;;;;;6.23;4.80;;;;;;;9.97;84.72;101838.28;5045661;28;20215;-83
2023/05/27 02:30:04;;;;;;;10.97;5.37;;;;;;;9.90;84.84;101853.06;5046381;28;20230;-82
2023/05/27 02:32:35;;;;;;;8.20;4.97;;;;;;;9.94;84.70;101853.06;5046116;28;20265;-82
2023/05/27 02:35:02;;;;;;;7.80;4.90;;;;;;;9.98;84.45;101853.97;5045321;28;20217;-83
2023/05/27 02:37:29;;;;;;;6.97;4.90;;;;;;;10.03;84.80;101861.81;5045948;28;20239;-83
2023/05/27 02:39:56;;;;;;;12.00;5.83;;;;;;;10.03;84.11;101869.63;5044814;28;20264;-84
2023/05/27 02:42:23;;;;;;;11.67;5.60;;;;;;;10.03;84.14;101870.53;5046166;28;20312;-84
2023/05/27 02:44:50;;;;;;;10.10;5.87;;;;;;;9.99;84.01;101866.16;5046270;28;20266;-83
2023/05/27 02:47:17;;;;;;;11.90;4.83;;;;;;;9.87;84.87;101859.13;5046404;28;20229;-83
2023/05/27 02:49:45;;;;;;;15.60;5.60;;;;;;;9.94;84.65;101865.25;5046644;28;20256;-83
2023/05/27 02:52:11;;;;;;;8.07;6.00;;;;;;;9.79;85.15;101855.59;5046616;28;20206;-82
2023/05/27 02:54:38;;;;;;;7.60;4.30;;;;;;;9.75;85.22;101851.19;5046776;28;20240;-83
2023/05/27 02:57:08;;;;;;;14.23;5.53;;;;;;;9.83;85.00;101851.25;5046709;28;20204;-83
2023/05/27 02:59:35;;;;;;;9.33;4.83;;;;;;;9.81;84.94;101852.97;5046829;28;20282;-83
2023/05/27 03:02:03;;;;;;;10.10;5.33;;;;;;;9.70;86.08;101851.16;5045844;28;20230;-84
2023/05/27 03:04:30;;;;;;;7.43;5.20;;;;;;;9.74;86.39;101826.00;5046362;28;20362;-84
2023/05/27 03:06:58;;;;;;;8.43;5.93;;;;;;;9.76;86.21;101826.00;5045941;28;20206;-83
2023/05/27 03:09:24;;;;;;;7.10;5.20;;;;;;;9.69;86.54;101817.25;5046597;28;20235;-83
2023/05/27 03:11:52;;;;;;;11.80;4.87;;;;;;;9.63;87.17;101817.22;5047146;28;20210;-83
2023/05/27 03:14:19;;;;;;;11.73;5.87;;;;;;;9.62;87.25;101805.91;5046979;28;20344;-82
2023/05/27 03:16:46;;;;;;;7.67;5.37;;;;;;;9.63;87.11;101812.00;5046952;28;20212;-83
2023/05/27 03:19:13;;;;;;;12.57;6.37;;;;;;;9.60;87.36;101819.81;5046421;28;20213;-82
2023/05/27 03:21:39;;;;;;;8.67;5.27;;;;;;;9.50;87.80;101809.31;5047067;28;20236;-83
2023/05/27 03:24:07;;;;;;;9.53;5.17;;;;;;;9.49;86.65;101822.31;5047479;28;20207;-82
2023/05/27 03:26:34;;;;;;;13.50;5.90;;;;;;;9.52;86.28;101832.78;5046776;28;20233;-83
2023/05/27 03:29:01;;;;;;;9.60;5.30;;;;;;;9.60;86.45;101835.47;5046386;28;20206;-81
2023/05/27 03:31:28;;;;;;;7.20;4.90;;;;;;;9.66;86.31;101838.09;5040804;28;20217;-82
2023/05/27 03:33:54;;;;;;;9.30;5.10;;;;;;;9.65;86.56;101838.94;5040781;28;20213;-82
2023/05/27 03:36:21;;;;;;;9.83;4.90;;;;;;;9.69;86.48;101844.22;5041039;28;20719;-83
2023/05/27 03:38:49;;;;;;;9.73;5.43;;;;;;;9.63;86.89;101851.09;5040542;28;20236;-81
2023/05/27 03:41:17;;;;;;;10.73;5.70;;;;;;;9.63;86.19;101857.22;5040481;28;20280;-83
2023/05/27 03:43:43;;;;;;;9.70;5.07;;;;;;;9.60;86.85;101846.75;5040813;28;20284;-83
2023/05/27 03:46:10;;;;;;;10.73;5.17;;;;;;;9.62;87.15;101844.16;5040080;28;20206;-81
2023/05/27 03:48:37;;;;;;;12.83;6.53;;;;;;;9.65;87.54;101841.56;5040024;28;20244;-83
2023/05/27 03:51:03;;;;;;;16.13;6.17;;;;;;;9.71;87.30;101839.91;5040164;28;20320;-80
2023/05/27 03:53:30;;;;;;;15.07;7.00;;;;;;;9.72;87.31;101835.53;5040514;28;20220;-79
2023/05/27 03:55:56;;;;;;;11.60;5.50;;;;;;;9.73;87.36;101835.56;5040541;28;20232;-79
2023/05/27 03:58:24;;;;;;;11.47;5.47;;;;;;;9.72;87.14;101836.41;5039959;28;20208;-80
2023/05/27 04:00:51;;;;;;;11.93;4.97;;;;;;;9.75;87.07;101830.34;5040656;28;20236;-79
2023/05/27 04:03:18;;;;;;;10.87;5.00;;;;;;;9.71;87.57;101829.47;5040661;28;20228;-82
2023/05/27 04:05:44;;;;;;;12.53;5.87;;;;;;;9.71;87.73;101820.75;5040960;28;20217;-81
2023/05/27 04:08:13;;;;;;;10.17;5.43;;;;;;;9.73;87.91;101816.41;5040245;28;20202;-80
2023/05/27 04:10:41;;;;;;;8.77;5.87;;;;;;;9.79;87.92;101806.06;5040882;28;20226;-80
2023/05/27 04:13:07;;;;;;;19.47;5.77;;;;;;;9.84;87.97;101811.28;5040673;28;20224;-82
2023/05/27 04:15:37;;;;;;;10.20;5.53;;;;;;;9.85;87.53;101806.09;5040643;28;20737;-80
2023/05/27 04:18:04;;;;;;;11.47;5.63;;;;;;;9.88;87.11;101813.91;5038936;28;20205;-79
2023/05/27 04:20:36;;;;;;;13.27;5.77;;;;;;;9.85;87.44;101808.69;5040379;28;20243;-84
2023/05/27 04:23:06;;;;;;;12.27;5.47;;;;;;;9.86;87.51;101822.59;5039566;28;20263;-82
2023/05/27 04:25:34;;;;;;;8.90;5.27;;;;;;;9.78;88.21;101804.28;5040283;28;20198;-80
2023/05/27 04:28:03;;;;;;;11.03;5.90;;;;;;;9.81;88.67;101800.81;5040148;28;20201;-82
2023/05/27 04:30:30;;;;;;;8.17;5.53;;;;;;;9.87;88.38;101804.34;5040366;28;20241;-80
2023/05/27 04:32:59;;;;;;;15.23;5.90;;;;;;;9.88;88.65;101800.00;5041688;28;20228;-82
2023/05/27 04:35:26;;;;;;;8.10;5.20;;;;;;;9.90;88.49;101795.66;5041195;28;20205;-82
2023/05/27 04:37:52;;;;;;;11.63;6.13;;;;;;;9.90;89.12;101788.72;5040736;28;20212;-80
2023/05/27 04:40:19;;;;;;;9.70;5.80;;;;;;;9.91;89.56;101781.75;5040271;28;20249;-80
2023/05/27 04:42:49;;;;;;;13.53;5.57;;;;;;;9.95;89.23;101775.72;5040974;28;20229;-82
2023/05/27 04:45:16;;;;;;;12.37;6.03;;;;;;;10.00;89.23;101788.78;5040651;28;20206;-80
2023/05/27 04:47:44;;;;;;;11.13;6.03;;;;;;;9.73;90.67;101767.75;5040675;28;20649;-81
2023/05/27 04:50:13;;;;;;;13.73;6.73;;;;;;;9.40;92.69;101736.28;5068742;23;20236;-79
2023/05/27 04:52:41;;;;;;;13.47;6.40;;;;;;;9.55;93.04;101715.50;5080719;28;20250;-79
2023/05/27 04:55:09;;;;;;;13.53;6.07;;;;;;;9.48;93.10;101711.13;5061104;28;20208;-78
2023/05/27 04:57:36;;;;;;;16.13;6.07;;;;;;;9.55;93.90;101694.63;5061731;28;20228;-78
2023/05/27 05:03:00;;;;;;;18.40;6.93;;;;;;;9.10;97.64;101636.19;5130037;27;20917;-76
2023/05/27 05:05:27;;;;;;;13.20;6.17;;;;;;;9.25;97.42;101628.44;5129871;27;20301;-75
2023/05/27 05:07:54;;;;;;;12.57;6.37;;;;;;;9.47;96.27;101633.78;5130063;27;20648;-75
2023/05/27 05:10:20;;;;;;;14.93;6.53;;;;;;;9.47;96.07;101649.41;5130589;27;20231;-75
2023/05/27 05:12:47;;;;;;;17.97;7.07;;;;;;;9.68;95.30;101678.22;5130046;27;20203;-75
2023/05/27 05:15:13;;;;;;;16.93;6.70;;;;;;;9.56;94.58;101706.81;5130309;27;20210;-75
2023/05/27 05:17:40;;;;;;;14.77;6.17;;;;;;;9.26;96.21;101695.34;5129972;27;20215;-75
2023/05/27 05:20:09;;;;;;;11.13;6.77;;;;;;;9.22;98.02;101666.66;5130124;27;20211;-75
2023/05/27 05:22:35;;;;;;;19.87;6.77;;;;;;;9.34;97.36;101669.34;5129920;27;20488;-75
2023/05/27 05:25:02;;;;;;;18.00;8.30;;;;;;;9.61;96.71;101683.38;5129644;27;20591;-75
2023/05/27 05:27:30;;;;;;;12.67;6.87;;;;;;;9.81;95.46;101709.53;5129644;27;20232;-76
2023/05/27 05:29:56;;;;;;;17.57;6.57;;;;;;;9.95;93.88;101744.41;5129990;27;20233;-75
2023/05/27 05:32:22;;;;;;;15.17;6.77;;;;;;;9.76;95.01;101750.41;5130120;27;20247;-75
2023/05/27 05:34:49;;;;;;;10.17;6.47;;;;;;;9.91;94.18;101747.84;5129758;27;20219;-75
2023/05/27 05:37:17;;;;;;;10.60;5.93;;;;;;;10.05;93.40;101764.44;5129797;27;20260;-76
2023/05/27 05:39:43;;;;;;;14.27;5.97;;;;;;;10.16;91.95;101802.75;5129628;27;20616;-76
2023/05/27 05:42:09;;;;;;;12.37;6.50;;;;;;;10.30;91.37;101814.16;5129612;27;20226;-75
2023/05/27 05:44:36;;;;;;;18.47;6.47;;;;;;;10.25;91.84;101814.13;5129849;27;20206;-76
2023/05/27 05:47:02;;;;;;;13.33;7.57;;;;;;;10.28;91.96;101821.94;5129220;27;20206;-75
2023/05/27 05:49:29;;;;;;;10.93;6.33;;;;;;;10.33;91.70;101824.63;5129458;27;20230;-75
2023/05/27 05:51:55;;;;;;;10.23;5.90;;;;;;;10.47;90.86;101841.22;5129409;27;20199;-75
2023/05/27 05:54:23;;;;;;;14.23;7.40;;;;;;;10.41;91.71;101835.09;5129282;27;20268;-75
2023/05/27 05:56:49;;;;;;;13.77;6.43;;;;;;;10.52;91.01;101841.22;5128977;27;20207;-75
2023/05/27 05:59:16;;;;;;;15.73;6.83;;;;;;;10.62;90.38;101858.66;5129422;27;20222;-73
2023/05/27 06:01:42;;;;;;;15.17;6.47;;;;;;;10.67;89.54;101862.16;5129202;27;20219;-75
2023/05/27 06:04:09;;;;;;;13.00;7.20;;;;;;;10.71;89.53;101874.38;5129453;27;20206;-75
2023/05/27 06:06:35;;;;;;;16.33;6.70;;;;;;;10.80;89.96;101867.44;5129245;27;20251;-75
2023/05/27 06:09:01;;;;;;;12.40;7.13;;;;;;;10.86;89.84;101870.06;5128829;27;20218;-75
2023/05/27 06:11:29;;;;;;;23.83;7.60;;;;;;;10.90;89.93;101874.41;5129236;27;20259;-76
2023/05/27 06:13:56;;;;;;;8.60;6.30;;;;;;;11.01;89.00;101890.16;5118025;27;20294;-75
2023/05/27 06:16:22;;;;;;;11.40;6.27;;;;;;;11.02;88.63;101899.72;5115785;28;20210;-75
2023/05/27 06:18:49;;;;;;;13.90;6.97;;;;;;;11.09;88.52;101910.19;5115580;28;20330;-75
2023/05/27 06:21:15;;;;;;;14.27;7.07;;;;;;;11.13;87.75;101927.63;5115066;28;20311;-75
2023/05/27 06:23:42;;;;;;;10.73;6.13;;;;;;;11.14;87.46;101944.19;5114773;28;20761;-75
2023/05/27 06:26:08;;;;;;;10.60;7.13;;;;;;;11.24;87.79;101940.72;5115109;28;20210;-75
2023/05/27 06:28:36;;;;;;;14.80;6.93;;;;;;;11.29;88.17;101925.91;5115167;27;20225;-75
2023/05/27 06:31:02;;;;;;;12.23;7.37;;;;;;;11.38;88.09;101921.56;5115154;28;20207;-75
2023/05/27 06:33:28;;;;;;;10.80;7.23;;;;;;;11.47;87.68;101932.91;5115145;28;20206;-76
2023/05/27 06:35:55;;;;;;;14.53;7.07;;;;;;;11.56;87.11;101933.81;5114761;28;20211;-76
2023/05/27 06:38:21;;;;;;;17.00;7.67;;;;;;;11.62;87.01;101942.53;5114572;28;20291;-75
2023/05/27 06:40:48;;;;;;;15.03;7.83;;;;;;;11.70;86.02;101948.66;5115044;27;20263;-75
2023/05/27 06:43:14;;;;;;;10.70;7.30;;;;;;;11.76;85.36;101960.00;5114907;28;20224;-76
2023/05/27 06:45:42;;;;;;;9.60;7.00;;;;;;;11.81;85.31;101972.19;5114814;28;20215;-76
2023/05/27 06:48:08;;;;;;;12.50;6.87;;;;;;;11.85;84.88;101968.72;5114553;28;20227;-75
2023/05/27 06:50:35;;;;;;;12.23;7.23;;;;;;;11.90;84.83;101981.84;5114823;28;20604;-75
2023/05/27 06:53:01;;;;;;;9.77;7.00;;;;;;;12.00;85.29;101985.31;5114855;28;20204;-75
2023/05/27 06:55:27;;;;;;;13.90;7.43;;;;;;;12.06;84.15;101995.78;5114224;27;20668;-75
2023/05/27 06:57:54;;;;;;;12.50;7.20;;;;;;;12.12;83.70;102011.50;5114441;27;20287;-75
2023/05/27 07:00:20;;;;;;;9.97;6.93;;;;;;;12.15;83.40;102011.50;5114514;28;20258;-75
2023/05/27 07:02:48;;;;;;;14.77;7.83;;;;;;;12.20;82.99;102030.69;5114151;28;20223;-76
2023/05/27 07:05:15;;;;;;;9.00;6.77;;;;;;;12.25;83.21;102033.28;5114306;28;20213;-76
2023/05/27 07:07:41;;;;;;;15.07;8.20;;;;;;;12.30;82.38;102049.88;5114275;27;20203;-76
2023/05/27 07:10:08;;;;;;;10.13;7.53;;;;;;;12.29;82.91;102049.03;5114413;28;20252;-76
2023/05/27 07:12:35;;;;;;;14.47;7.07;;;;;;;12.39;82.97;102046.38;5114502;28;20207;-74
2023/05/27 07:15:01;;;;;;;17.57;7.00;;;;;;;12.46;82.75;102048.13;5114138;28;20203;-74
2023/05/27 07:17:28;;;;;;;10.90;7.57;;;;;;;12.52;82.23;102050.75;5113844;28;20214;-74
2023/05/27 07:19:55;;;;;;;14.17;7.03;;;;;;;12.57;81.42;102064.72;5113764;28;20223;-76
2023/05/27 07:22:22;;;;;;;11.43;6.63;;;;;;;12.65;82.34;102055.09;5114113;28;20280;-76
2023/05/27 07:24:48;;;;;;;11.17;6.93;;;;;;;12.76;82.05;102055.06;5112746;28;20673;-76
2023/05/27 07:27:15;;;;;;;13.63;7.70;;;;;;;12.80;81.89;102062.03;5093216;28;20725;-76
2023/05/27 07:29:42;;;;;;;9.97;6.37;;;;;;;12.87;81.07;102073.41;5093443;28;20221;-76
2023/05/27 07:32:08;;;;;;;9.57;7.00;;;;;;;12.87;79.56;102084.75;5109268;28;20253;-76
2023/05/27 07:34:34;;;;;;;15.47;6.83;;;;;;;12.94;78.78;102110.94;5113341;28;20195;-76
2023/05/27 07:37:02;;;;;;;10.37;6.57;;;;;;;12.93;78.38;102132.81;5113193;27;20196;-76
2023/05/27 07:39:29;;;;;;;10.53;6.50;;;;;;;13.01;78.96;102121.44;5113123;28;20272;-76
2023/05/27 07:41:55;;;;;;;9.13;6.33;;;;;;;13.08;78.22;102132.75;5112938;28;20313;-73
2023/05/27 07:44:21;;;;;;;8.97;6.10;;;;;;;13.13;77.22;102159.00;5113027;28;20200;-76
2023/05/27 07:46:48;;;;;;;12.53;6.50;;;;;;;13.16;76.78;102172.06;5112936;28;20263;-76
2023/05/27 07:49:15;;;;;;;13.30;7.17;;;;;;;13.21;77.77;102167.72;5113107;28;20707;-76
2023/05/27 07:51:41;;;;;;;9.50;6.27;;;;;;;13.28;77.92;102151.09;5113285;28;20249;-76
2023/05/27 07:54:09;;;;;;;10.57;6.47;;;;;;;13.33;77.27;102146.72;5113524;28;20259;-76
2023/05/27 07:56:35;;;;;;;10.77;5.63;;;;;;;13.34;76.50;102158.09;5113028;28;20204;-76
2023/05/27 07:59:02;;;;;;;13.13;5.87;;;;;;;13.40;77.53;102148.47;5112788;28;20223;-76
2023/05/27 08:01:31;;;;;;;8.87;5.43;;;;;;;13.49;75.50;102168.53;5112908;28;20263;-76
2023/05/27 08:03:58;;;;;;;10.97;5.80;;;;;;;13.55;75.54;102179.00;5113100;28;20211;-76
2023/05/27 08:06:24;;;;;;;12.67;5.90;;;;;;;13.58;74.96;102192.13;5112557;28;20191;-76
2023/05/27 08:08:50;;;;;;;11.90;6.77;;;;;;;13.62;75.54;102203.50;5113151;28;20229;-76
2023/05/27 08:11:18;;;;;;;10.40;6.00;;;;;;;13.66;75.32;102192.09;5112705;28;20666;-76
2023/05/27 08:13:45;;;;;;;10.43;5.10;;;;;;;13.74;73.54;102202.59;5112490;28;20200;-76
2023/05/27 08:16:12;;;;;;;10.50;4.67;;;;;;;13.80;72.92;102224.41;5107869;28;20199;-76
2023/05/27 08:18:38;;;;;;;8.80;4.97;;;;;;;13.83;71.55;102265.53;5111711;28;20276;-76
2023/05/27 08:21:04;;;;;;;9.53;5.70;;;;;;;13.90;72.22;102272.50;5112525;27;20654;-76
2023/05/27 08:23:31;;;;;;;11.10;5.83;;;;;;;13.95;72.85;102251.47;5110684;28;20226;-76
2023/05/27 08:25:57;;;;;;;9.47;5.23;;;;;;;14.01;72.17;102254.97;5111082;28;20252;-76
2023/05/27 08:28:25;;;;;;;8.80;4.80;;;;;;;14.08;72.03;102261.06;5112081;28;20570;-74
2023/05/27 08:30:52;;;;;;;8.00;4.23;;;;;;;14.15;70.65;102275.03;5111961;28;20200;-73
2023/05/27 08:33:19;;;;;;;8.13;4.97;;;;;;;14.19;69.80;102303.94;5113007;28;20200;-74
2023/05/27 08:35:46;;;;;;;10.07;4.73;;;;;;;14.25;70.95;102297.75;5112515;28;20219;-74
2023/05/27 08:38:13;;;;;;;9.77;5.30;;;;;;;14.32;71.22;102264.47;5112551;28;20228;-74
2023/05/27 08:40:39;;;;;;;10.93;4.23;;;;;;;14.40;69.54;102289.81;5112212;28;20257;-76
2023/05/27 08:43:07;;;;;;;13.23;4.87;;;;;;;14.46;69.90;102295.03;5112203;28;20224;-74
2023/05/27 08:45:34;;;;;;;8.87;4.40;;;;;;;14.48;69.25;102313.41;5109535;28;20204;-74
2023/05/27 08:48:02;;;;;;;9.40;4.80;;;;;;;14.50;69.17;102323.03;5112030;27;20216;-76
2023/05/27 08:50:28;;;;;;;11.00;5.13;;;;;;;14.57;69.93;102315.16;5112237;28;20243;-74
2023/05/27 08:52:55;;;;;;;10.20;4.57;;;;;;;14.62;69.67;102306.34;5112236;28;20196;-74
2023/05/27 08:55:22;;;;;;;7.87;4.37;;;;;;;14.69;68.75;102310.72;5111954;28;20199;-74
2023/05/27 08:57:52;;;;;;;9.23;4.00;;;;;;;14.75;67.67;102330.84;5111632;28;20195;-74
2023/05/27 09:00:19;;;;;;;7.47;4.77;;;;;;;14.81;67.03;102346.56;5112065;28;20196;-74
2023/05/27 09:02:47;;;;;;;11.63;4.87;;;;;;;14.89;68.01;102357.03;5111690;28;20278;-74
2023/05/27 09:05:15;;;;;;;8.27;4.37;;;;;;;14.92;67.40;102357.00;5109851;28;20223;-74
2023/05/27 09:07:42;;;;;;;9.00;4.37;;;;;;;15.00;67.41;102343.81;5111910;28;20196;-74
2023/05/27 09:10:09;;;;;;;9.13;4.47;;;;;;;15.06;67.31;102344.66;5112568;28;20200;-74
2023/05/27 09:12:36;;;;;;;7.30;4.20;;;;;;;15.12;66.36;102359.50;5112337;28;20204;-74
2023/05/27 09:15:03;;;;;;;9.67;4.67;;;;;;;15.15;65.98;102371.78;5112319;28;20235;-74
2023/05/27 09:17:30;;;;;;;8.63;4.33;;;;;;;15.21;66.27;102377.00;5112013;28;20720;-74
2023/05/27 09:19:58;;;;;;;9.10;4.67;;;;;;;15.26;65.02;102386.63;5112443;28;20231;-74
2023/05/27 09:22:26;;;;;;;7.60;4.93;;;;;;;15.29;65.37;102397.09;5112208;28;20223;-74
2023/05/27 09:24:54;;;;;;;10.77;5.30;;;;;;;15.35;64.39;102411.09;5108240;28;20213;-74
2023/05/27 09:27:25;;;;;;;12.77;4.97;;;;;;;15.40;65.08;102401.41;5112105;28;20296;-74
2023/05/27 09:29:51;;;;;;;9.53;5.23;;;;;;;15.51;69.72;102386.41;5112528;28;20221;-74
2023/05/27 09:32:24;;;;;;;8.57;5.60;;;;;;;15.63;68.47;102296.78;5112227;28;20202;-74
2023/05/27 09:34:51;;;;;;;9.43;5.17;;;;;;;15.67;66.12;102319.56;5112482;28;20211;-74
2023/05/27 09:37:20;;;;;;;8.90;4.80;;;;;;;15.71;65.71;102351.16;5111763;28;20605;-74
2023/05/27 09:39:48;;;;;;;14.83;6.43;;;;;;;15.73;64.52;102375.72;5112133;28;20225;-74
2023/05/27 09:42:14;;;;;;;7.53;6.07;;;;;;;15.79;65.06;102392.34;5111843;28;20670;-74
2023/05/27 09:44:41;;;;;;;13.13;6.70;;;;;;;15.83;65.54;102372.13;5111840;28;20738;-74
2023/05/27 09:47:10;;;;;;;11.60;5.77;;;;;;;15.89;65.65;102379.94;5112005;28;20293;-74
2023/05/27 09:49:38;;;;;;;14.83;5.93;;;;;;;15.92;63.37;102392.25;5115427;28;20275;-74
2023/05/27 09:52:07;;;;;;;11.73;5.07;;;;;;;15.99;64.63;102401.81;5115715;28;20206;-74
2023/05/27 09:54:36;;;;;;;8.37;4.93;;;;;;;16.05;63.05;102410.53;5112035;28;20267;-75
2023/05/27 09:57:03;;;;;;;7.47;4.33;;;;;;;16.13;61.81;102433.28;5116158;28;20205;-74
2023/05/27 09:59:30;;;;;;;6.80;4.80;;;;;;;16.17;61.77;102454.31;5115942;28;20229;-74
2023/05/27 10:01:58;;;;;;;6.60;4.30;;;;;;;16.18;61.57;102479.78;5115757;27;20281;-74
2023/05/27 10:04:26;;;;;;;13.47;4.83;;;;;;;16.24;61.13;102485.00;5112768;28;20253;-75
2023/05/27 10:06:55;;;;;;;8.77;5.20;;;;;;;16.34;61.92;102469.97;5114781;28;20194;-75
2023/05/27 10:09:22;;;;;;;9.67;5.07;;;;;;;16.45;62.20;102472.47;5115079;28;20228;-75
2023/05/27 10:11:51;;;;;;;7.43;4.47;;;;;;;16.52;60.59;102466.25;5115162;27;20666;-76
2023/05/27 10:14:19;;;;;;;11.50;4.40;;;;;;;16.60;60.41;102479.34;5114582;28;20651;-76
2023/05/27 10:16:53;;;;;;;6.03;4.30;;;;;;;16.65;60.28;102485.47;5113900;28;20218;-74
2023/05/27 10:19:19;;;;;;;7.60;4.30;;;;;;;16.72;61.80;102473.06;5114637;28;20218;-75
2023/05/27 10:21:46;;;;;;;6.73;3.77;;;;;;;16.77;60.33;102461.56;5115347;28;20202;-74
2023/05/27 10:24:12;;;;;;;5.93;3.63;;;;;;;16.85;58.68;102485.25;5115332;28;20222;-74
2023/05/27 10:26:40;;;;;;;7.23;4.50;;;;;;;16.87;59.90;102483.47;5115185;28;20258;-74
2023/05/27 10:29:10;;;;;;;5.43;4.00;;;;;;;16.93;59.73;102487.81;5115091;28;20595;-74
2023/05/27 10:31:37;;;;;;;7.53;4.40;;;;;;;17.02;58.52;102483.25;5115637;28;20205;-75
2023/05/27 10:34:05;;;;;;;7.03;3.80;;;;;;;17.07;57.35;102506.97;5115230;28;20238;-74
2023/05/27 10:36:33;;;;;;;6.63;3.43;;;;;;;17.13;58.53;102521.84;5112391;28;20205;-75
2023/05/27 10:39:01;;;;;;;8.13;3.77;;;;;;;17.20;58.90;102511.16;5114393;28;20217;-73
2023/05/27 10:41:27;;;;;;;11.23;4.77;;;;;;;17.27;59.16;102502.28;5114417;28;20669;-74
2023/05/27 10:43:58;;;;;;;6.83;3.77;;;;;;;17.39;58.97;102481.88;5114036;28;20639;-74
2023/05/27 10:46:26;;;;;;;8.10;4.43;;;;;;;17.47;59.46;102451.81;5114157;28;20261;-74
2023/05/27 10:48:52;;;;;;;8.97;3.90;;;;;;;17.56;57.18;102466.66;5113071;28;20707;-74
2023/05/27 10:51:19;;;;;;;5.83;3.10;;;;;;;17.63;55.56;102491.19;5114463;28;20207;-73
2023/05/27 10:53:47;;;;;;;4.47;2.70;;;;;;;17.67;53.93;102546.59;5081642;22;20584;-72
2023/05/27 10:56:14;;;;;;;5.50;3.73;;;;;;;17.71;54.23;102562.41;5031869;28;20291;-72
2023/05/27 10:58:41;;;;;;;6.13;3.60;;;;;;;17.81;53.41;102586.00;5033903;28;20227;-74
2023/05/27 11:01:11;;;;;;;6.37;3.30;;;;;;;17.89;53.34;102625.56;5034080;28;20279;-72
2023/05/27 11:03:44;;;;;;;6.47;3.40;;;;;;;18.01;56.22;102600.72;5034066;28;20218;-72
2023/05/27 11:06:17;;;;;;;6.10;2.83;;;;;;;18.09;53.06;102593.56;5033725;28;20205;-72
2023/05/27 11:08:44;;;;;;;6.30;2.83;;;;;;;18.16;54.49;102615.50;5034002;28;20232;-74
2023/05/27 11:11:11;;;;;;;3.80;2.50;;;;;;;18.28;52.69;102609.13;5033473;28;20201;-74
2023/05/27 11:13:42;;;;;;;4.80;3.27;;;;;;;18.39;52.52;102612.47;5034272;28;20203;-75
2023/05/27 11:16:08;;;;;;;5.80;3.57;;;;;;;18.53;52.75;102631.63;5034659;28;20206;-75
2023/05/27 11:18:37;;;;;;;5.37;2.97;;;;;;;18.65;53.48;102597.03;5032639;28;20945;-75
2023/05/27 11:21:05;;;;;;;7.40;3.00;;;;;;;18.82;53.17;102595.88;5033444;28;20205;-74
2023/05/27 11:23:40;;;;;;;4.93;3.07;;;;;;;18.98;53.65;102609.66;5033707;28;20237;-74
2023/05/27 11:26:13;;;;;;;5.50;3.00;;;;;;;19.12;50.73;102594.38;5033592;28;20217;-75